Time;durP1;ratioP1;P1;durP2;ratioP2;P2;SDS_P1;SDS_P2;PMS_P1;PMS_P2;Temp;Humidity;BMP_temperature;BMP_pressure;BME280_temperature;BME280_humidity;BME280_pressure;Samples;Min_cycle;Max_cycle;Signal;HPM_P1;HPM_P2
2021/05/21 00:01:39;;;;;;;58.60;6.57;;;;;;;9.29;84.45;98872.81;6087599;23;20017;-79
2021/05/21 00:04:14;;;;;;;46.90;6.00;;;;;;;9.35;84.10;98866.19;6110272;23;20017;-78
2021/05/21 00:06:41;;;;;;;48.90;7.65;;;;;;;9.19;83.35;98822.78;6112560;23;20096;-80
2021/05/21 00:09:15;;;;;;;41.47;5.35;;;;;;;9.25;82.81;98843.41;6111875;23;20068;-79
2021/05/21 00:11:43;;;;;;;44.17;5.38;;;;;;;9.25;81.76;98832.50;6136608;23;20009;-80
2021/05/21 00:14:08;;;;;;;38.13;5.72;;;;;;;9.33;80.61;98846.56;6109710;23;20423;-78
2021/05/21 00:16:34;;;;;;;34.15;6.45;;;;;;;9.44;80.29;98922.50;6108066;23;20089;-80
2021/05/21 00:18:59;;;;;;;30.60;6.43;;;;;;;9.49;79.27;98842.50;6134555;23;20032;-79
2021/05/21 00:21:24;;;;;;;56.17;7.45;;;;;;;9.48;78.86;98835.44;6060056;23;20016;-79
2021/05/21 00:23:58;;;;;;;30.83;5.57;;;;;;;9.56;77.51;98859.31;6131735;23;20455;-79
2021/05/21 00:26:28;;;;;;;35.67;6.13;;;;;;;9.54;77.35;98798.75;6129485;23;20148;-80
2021/05/21 00:28:53;;;;;;;22.52;4.20;;;;;;;9.68;76.60;98825.28;6135573;23;20009;-79
2021/05/21 00:31:19;;;;;;;32.80;5.25;;;;;;;9.69;76.65;98840.53;6131928;23;20083;-78
2021/05/21 00:33:57;;;;;;;;;;;;;;;;;;;;;
2021/05/21 00:36:22;;;;;;;32.63;4.97;;;;;;;9.71;75.37;98830.97;6139411;23;20036;-80
2021/05/21 00:38:48;;;;;;;32.22;4.63;;;;;;;9.72;75.61;98821.63;6110569;23;20009;-80
2021/05/21 00:41:21;;;;;;;33.00;4.88;;;;;;;9.74;74.92;98805.78;6135978;23;20017;-80
2021/05/21 00:43:52;;;;;;;33.20;7.00;;;;;;;9.75;76.06;98820.25;6134990;23;20012;-80
2021/05/21 00:46:17;;;;;;;33.08;5.30;;;;;;;9.82;76.52;98830.78;6108931;23;20313;-80
2021/05/21 00:48:45;;;;;;;33.33;4.80;;;;;;;9.70;77.47;98803.97;6126448;23;20005;-81
2021/05/21 00:51:10;;;;;;;22.70;4.75;;;;;;;9.65;77.83;98804.03;6111819;23;20367;-79
2021/05/21 00:53:37;;;;;;;26.55;5.00;;;;;;;9.65;77.88;98788.50;6137598;23;20014;-80
2021/05/21 00:56:03;;;;;;;48.10;7.40;;;;;;;9.47;78.17;98813.91;6156750;23;19998;-82
2021/05/21 00:58:30;;;;;;;33.60;5.80;;;;;;;9.56;78.93;98842.94;6134836;23;20006;-81
2021/05/21 01:00:56;;;;;;;29.27;5.43;;;;;;;9.49;79.71;98869.81;6135796;23;20025;-79
2021/05/21 01:03:22;;;;;;;32.58;4.75;;;;;;;9.40;79.77;98795.16;6114561;23;20069;-79
2021/05/21 01:05:54;;;;;;;43.45;4.53;;;;;;;9.43;78.98;98863.63;6137591;23;20001;-79
2021/05/21 01:08:22;;;;;;;47.92;5.03;;;;;;;9.31;79.23;98792.31;6110407;23;20471;-76
2021/05/21 01:10:53;;;;;;;38.05;5.00;;;;;;;9.39;78.67;98805.28;6133632;23;20032;-77
2021/05/21 01:13:21;;;;;;;28.63;5.40;;;;;;;9.47;78.15;98809.25;6131020;23;20048;-77
2021/05/21 01:15:46;;;;;;;28.42;5.22;;;;;;;9.55;78.72;98805.00;6106940;23;20028;-77
2021/05/21 01:18:12;;;;;;;39.70;6.00;;;;;;;9.57;79.85;98787.25;6131900;23;20045;-79
2021/05/21 01:20:38;;;;;;;27.73;4.93;;;;;;;9.55;80.10;98794.94;6132417;23;20420;-77
2021/05/21 01:23:05;;;;;;;38.58;5.43;;;;;;;9.45;81.08;98789.66;6133414;23;20052;-78
2021/05/21 01:25:32;;;;;;;29.77;4.70;;;;;;;9.35;82.94;98781.63;6140606;23;20001;-78
2021/05/21 01:27:58;;;;;;;42.45;5.72;;;;;;;9.27;83.59;98791.28;6142157;23;20020;-75
2021/05/21 01:30:25;;;;;;;28.08;4.90;;;;;;;9.19;84.33;98790.03;6138730;23;20405;-76
2021/05/21 01:32:51;;;;;;;26.77;4.55;;;;;;;9.14;84.83;98773.78;6122306;23;20005;-77
2021/05/21 01:35:18;;;;;;;41.28;6.18;;;;;;;9.17;84.01;98778.63;6145006;23;20016;-78
2021/05/21 01:37:45;;;;;;;28.15;5.57;;;;;;;9.06;85.53;98777.16;6171730;23;20025;-79
2021/05/21 01:40:12;;;;;;;26.42;4.75;;;;;;;9.08;85.00;98803.03;6145090;23;20053;-79
2021/05/21 01:42:39;;;;;;;31.98;5.82;;;;;;;9.07;85.09;98800.59;6147274;23;20033;-77
2021/05/21 01:45:06;;;;;;;26.00;4.32;;;;;;;9.04;85.50;98757.56;6146730;23;20336;-77
2021/05/21 01:47:31;;;;;;;26.58;5.00;;;;;;;9.08;85.82;98777.66;6126343;23;20451;-77
2021/05/21 01:49:57;;;;;;;25.40;4.72;;;;;;;9.14;85.66;98768.31;6146434;23;20002;-77
2021/05/21 01:52:23;;;;;;;40.65;6.30;;;;;;;9.16;85.67;98787.91;6160521;23;20024;-78
2021/05/21 01:54:48;;;;;;;35.13;5.40;;;;;;;9.12;85.17;98761.53;6108043;23;20016;-78
2021/05/21 01:57:14;;;;;;;25.17;5.05;;;;;;;9.18;85.25;98752.97;6132082;23;20037;-78
2021/05/21 01:59:39;;;;;;;24.23;5.07;;;;;;;9.23;84.77;98744.72;6132082;23;20040;-77
2021/05/21 02:02:11;;;;;;;28.58;4.93;;;;;;;9.23;84.43;98717.44;6104572;23;20021;-76
2021/05/21 02:04:41;;;;;;;41.15;6.05;;;;;;;9.23;84.59;98717.44;6131013;23;20384;-77
2021/05/21 02:07:11;;;;;;;28.08;5.03;;;;;;;9.23;83.99;98717.44;6106887;23;20032;-76
2021/05/21 02:10:01;;;;;;;36.47;5.00;;;;;;;9.20;84.77;98722.66;6132511;23;20016;-77
2021/05/21 02:12:31;;;;;;;49.50;5.85;;;;;;;9.10;84.28;98718.22;6158584;23;20440;-76
2021/05/21 02:15:00;;;;;;;35.25;5.68;;;;;;;9.13;84.35;98742.16;6131140;23;20056;-76
2021/05/21 02:17:29;;;;;;;31.88;5.30;;;;;;;9.16;83.96;98755.19;6157329;23;20320;-76
2021/05/21 02:20:08;;;;;;;28.98;4.00;;;;;;;9.03;83.71;98720.50;6132493;23;20017;-76
2021/05/21 02:22:49;;;;;;;29.05;4.45;;;;;;;9.06;82.83;98685.25;6148139;23;20097;-76
2021/05/21 02:25:15;;;;;;;33.72;4.72;;;;;;;9.08;81.58;98693.13;6102762;23;20002;-75
2021/05/21 02:27:42;;;;;;;35.97;5.13;;;;;;;9.23;81.90;98720.16;6126875;23;20081;-76
2021/05/21 02:30:09;;;;;;;27.65;4.82;;;;;;;9.22;81.47;98699.44;6103010;23;20002;-78
2021/05/21 02:32:36;;;;;;;23.40;5.13;;;;;;;9.25;81.25;98725.31;6129224;23;20332;-78
2021/05/21 02:35:02;;;;;;;26.35;5.65;;;;;;;9.32;81.31;98768.59;6099610;23;20096;-78
2021/05/21 02:37:30;;;;;;;20.00;5.10;;;;;;;9.28;81.63;98745.75;6102810;23;20336;-77
2021/05/21 02:39:56;;;;;;;26.60;4.15;;;;;;;9.38;81.55;98701.91;6078263;23;20006;-79
2021/05/21 02:42:24;;;;;;;15.35;2.75;;;;;;;9.41;81.21;98701.31;6077638;23;20014;-78
2021/05/21 02:44:50;;;;;;;16.25;4.05;;;;;;;9.32;81.20;98706.66;6103918;23;20049;-78
2021/05/21 02:47:16;;;;;;;17.88;2.78;;;;;;;9.36;81.61;98698.66;6054572;23;20014;-80
2021/05/21 02:49:41;;;;;;;19.73;4.18;;;;;;;9.28;81.00;98704.81;6110327;23;20041;-80
2021/05/21 02:52:07;;;;;;;26.92;4.22;;;;;;;9.28;81.37;98685.72;6135394;23;20017;-81
2021/05/21 02:54:34;;;;;;;32.25;4.95;;;;;;;9.24;81.05;98691.78;6107682;23;20069;-77
2021/05/21 02:57:00;;;;;;;29.55;4.07;;;;;;;9.31;80.06;98674.22;6063170;23;20006;-80
2021/05/21 02:59:28;;;;;;;19.40;3.60;;;;;;;9.41;79.95;98674.03;6130388;23;20485;-81
2021/05/21 03:02:01;;;;;;;13.88;2.83;;;;;;;9.41;80.81;98671.31;6082234;23;20381;-81
2021/05/21 03:04:43;;;;;;;9.80;2.78;;;;;;;9.23;79.92;98660.16;6080015;23;20010;-79
2021/05/21 03:07:11;;;;;;;12.05;2.67;;;;;;;9.16;80.29;98646.09;6081944;23;20021;-80
2021/05/21 03:09:37;;;;;;;16.40;3.58;;;;;;;9.26;80.42;98672.41;6104806;23;19997;-82
2021/05/21 03:12:05;;;;;;;20.80;3.42;;;;;;;9.23;80.14;98665.63;6108890;23;20010;-80
2021/05/21 03:14:30;;;;;;;19.10;3.35;;;;;;;9.28;79.85;98636.63;6105033;23;20013;-82
2021/05/21 03:16:59;;;;;;;29.17;3.70;;;;;;;9.28;79.82;98653.00;6110494;23;20061;-82
2021/05/21 03:19:28;;;;;;;18.45;3.50;;;;;;;9.49;79.94;98647.97;6109828;23;20006;-80
2021/05/21 03:21:58;;;;;;;20.83;4.32;;;;;;;9.26;78.55;98656.81;6077675;23;20014;-79
2021/05/21 03:24:24;;;;;;;31.38;4.53;;;;;;;9.39;78.19;98621.69;6130645;23;20085;-76
2021/05/21 03:26:52;;;;;;;32.78;4.88;;;;;;;9.57;77.93;98663.63;6126466;23;20029;-76
2021/05/21 03:29:17;;;;;;;19.98;4.10;;;;;;;9.56;78.20;98649.19;6127147;23;20021;-77
2021/05/21 03:31:52;;;;;;;22.58;4.82;;;;;;;9.56;77.21;98649.19;6126302;23;20021;-77
2021/05/21 03:34:20;;;;;;;24.20;3.90;;;;;;;9.61;77.31;98648.28;6125237;23;20016;-77
2021/05/21 03:36:46;;;;;;;28.02;4.45;;;;;;;9.60;76.42;98682.94;6105445;23;20720;-77
2021/05/21 03:39:14;;;;;;;25.48;3.65;;;;;;;9.56;76.60;98641.00;6159295;23;20009;-78
2021/05/21 03:41:39;;;;;;;12.25;3.30;;;;;;;9.54;75.80;98651.41;6112919;23;20021;-77
2021/05/21 03:44:08;;;;;;;26.85;4.03;;;;;;;9.69;76.10;98655.75;6107639;23;20048;-78
2021/05/21 03:46:33;;;;;;;20.92;3.28;;;;;;;9.63;76.57;98620.69;6133694;23;20084;-78
2021/05/21 03:49:01;;;;;;;16.30;3.35;;;;;;;9.58;76.46;98607.97;6111860;23;20024;-78
2021/05/21 03:51:27;;;;;;;29.83;3.83;;;;;;;9.61;75.79;98640.91;6116177;23;20009;-79
2021/05/21 03:53:52;;;;;;;35.38;4.93;;;;;;;9.58;76.29;98625.13;6137605;23;20068;-79
2021/05/21 03:56:18;;;;;;;27.73;3.72;;;;;;;9.55;76.23;98657.66;6096832;23;20044;-79
2021/05/21 03:58:45;;;;;;;33.40;4.30;;;;;;;9.64;75.81;98627.75;6130400;23;20045;-81
2021/05/21 04:01:11;;;;;;;21.60;3.88;;;;;;;9.63;76.03;98609.78;6125110;23;20005;-82
2021/05/21 04:03:36;;;;;;;31.35;4.68;;;;;;;9.71;75.55;98617.22;6123088;23;20328;-79
2021/05/21 04:06:02;;;;;;;25.60;3.95;;;;;;;9.67;75.96;98633.41;6133909;23;20005;-79
2021/05/21 04:08:29;;;;;;;23.02;3.33;;;;;;;9.74;74.97;98583.88;6115527;23;20006;-81
2021/05/21 04:10:55;;;;;;;24.20;4.35;;;;;;;9.76;74.76;98600.75;6091534;23;20076;-80
2021/05/21 04:13:20;;;;;;;27.67;4.03;;;;;;;9.74;74.06;98578.44;6140479;23;20052;-81
2021/05/21 04:15:46;;;;;;;20.67;3.72;;;;;;;9.83;74.14;98611.25;6091696;23;20005;-79
2021/05/21 04:18:14;;;;;;;16.50;3.75;;;;;;;9.77;74.49;98611.38;6112211;23;20050;-81
2021/05/21 04:20:39;;;;;;;24.70;3.60;;;;;;;9.81;74.86;98603.38;6108236;23;20073;-81
2021/05/21 04:23:05;;;;;;;18.85;3.90;;;;;;;9.91;74.37;98584.03;6112997;23;20064;-80
2021/05/21 04:25:31;;;;;;;26.00;3.75;;;;;;;9.89;74.24;98586.28;6112634;23;20391;-81
2021/05/21 04:27:56;;;;;;;23.08;4.47;;;;;;;9.79;75.06;98573.66;6132013;23;20376;-78
2021/05/21 04:30:23;;;;;;;25.77;3.97;;;;;;;9.91;74.52;98600.41;6131966;23;20002;-78
2021/05/21 04:32:52;;;;;;;25.02;4.28;;;;;;;9.90;74.75;98598.81;6128917;23;20006;-78
2021/05/21 04:35:20;;;;;;;31.33;4.55;;;;;;;9.84;75.31;98578.22;6127580;23;20010;-77
2021/05/21 04:37:46;;;;;;;25.65;4.13;;;;;;;9.88;76.42;98606.50;6104607;23;20358;-78
2021/05/21 04:40:13;;;;;;;26.17;4.40;;;;;;;9.78;78.29;98606.72;6165080;23;20012;-78
2021/05/21 04:42:38;;;;;;;26.05;4.53;;;;;;;9.63;80.41;98590.66;6167602;23;20028;-78
2021/05/21 04:45:08;;;;;;;35.65;5.03;;;;;;;9.53;81.29;98589.75;6111201;23;20013;-79
2021/05/21 04:47:43;;;;;;;8.45;3.60;;;;;;;9.38;81.60;98587.34;6113153;23;20010;-78
2021/05/21 04:50:09;;;;;;;36.30;5.27;;;;;;;9.18;82.67;98567.50;6162829;23;20001;-78
2021/05/21 04:52:44;;;;;;;33.78;4.65;;;;;;;9.13;82.69;98564.09;6132799;23;20659;-78
2021/05/21 04:55:18;;;;;;;31.40;4.55;;;;;;;9.20;81.90;98568.03;6105543;23;20014;-77
2021/05/21 04:57:49;;;;;;;28.10;2.88;;;;;;;9.01;80.67;98540.84;6131749;23;20001;-75
2021/05/21 05:00:25;;;;;;;12.38;2.97;;;;;;;9.18;79.99;98569.44;6155674;23;20005;-76
2021/05/21 05:02:52;;;;;;;;;;;;;;;9.17;80.43;98560.47;6132007;23;19997;-76
2021/05/21 05:05:18;;;;;;;22.85;4.68;;;;;;;9.19;80.27;98552.78;6157621;23;19928;-76
2021/05/21 05:07:43;;;;;;;14.73;3.83;;;;;;;9.23;79.55;98586.53;6107451;23;20429;-78
2021/05/21 05:10:09;;;;;;;34.45;4.90;;;;;;;9.27;79.57;98543.06;6153312;23;20491;-74
2021/05/21 05:12:35;;;;;;;17.17;3.58;;;;;;;9.32;78.79;98539.47;6103939;23;20017;-75
2021/05/21 05:15:02;;;;;;;24.67;3.75;;;;;;;9.41;79.32;98543.09;6109726;23;20012;-76
2021/05/21 05:17:28;;;;;;;23.13;3.72;;;;;;;9.41;79.14;98551.25;6108860;23;20001;-77
2021/05/21 05:19:54;;;;;;;24.45;4.35;;;;;;;9.32;78.98;98534.00;6106914;23;20024;-76
2021/05/21 05:22:19;;;;;;;22.23;4.15;;;;;;;9.46;78.78;98577.63;6104083;23;20421;-75
2021/05/21 05:24:45;;;;;;;37.58;4.30;;;;;;;9.48;78.21;98540.75;6098815;23;20010;-77
2021/05/21 05:27:11;;;;;;;22.33;3.30;;;;;;;9.53;78.00;98543.34;6125780;23;20010;-76
2021/05/21 05:29:50;;;;;;;29.30;3.72;;;;;;;9.69;77.28;98543.03;6124060;23;20065;-76
2021/05/21 05:32:16;;;;;;;21.90;3.33;;;;;;;9.66;76.17;98543.66;6098781;23;20385;-78
2021/05/21 05:34:41;;;;;;;18.75;3.53;;;;;;;9.80;76.23;98549.91;6051772;23;20086;-78
2021/05/21 05:37:07;;;;;;;11.10;2.95;;;;;;;9.92;75.59;98552.91;6101098;23;20048;-79
2021/05/21 05:39:32;;;;;;;25.48;3.22;;;;;;;10.00;75.26;98545.09;6099679;23;20021;-77
2021/05/21 05:42:00;;;;;;;21.33;3.00;;;;;;;9.98;74.79;98520.03;6123074;23;20036;-76
2021/05/21 05:44:33;;;;;;;19.13;3.38;;;;;;;10.06;74.73;98552.03;6077790;23;20433;-75
2021/05/21 05:46:58;;;;;;;31.77;4.40;;;;;;;10.05;74.96;98543.06;6077454;23;20101;-75
2021/05/21 05:49:24;;;;;;;26.88;3.95;;;;;;;10.09;75.08;98524.13;6073790;23;20477;-75
2021/05/21 05:51:49;;;;;;;18.83;3.65;;;;;;;10.14;74.54;98564.97;6075546;23;20010;-77
2021/05/21 05:54:15;;;;;;;19.42;4.03;;;;;;;10.16;74.95;98549.06;6053829;23;20425;-77
2021/05/21 05:56:40;;;;;;;32.90;4.35;;;;;;;10.21;74.01;98527.13;6076927;23;20425;-76
2021/05/21 05:59:06;;;;;;;15.65;3.28;;;;;;;10.26;73.81;98540.63;6076870;23;20017;-77
2021/05/21 06:01:34;;;;;;;31.42;4.63;;;;;;;10.34;73.70;98546.50;6079049;23;20010;-80
2021/05/21 06:03:59;;;;;;;22.00;4.68;;;;;;;10.37;73.08;98524.06;6104509;23;20006;-77
2021/05/21 06:06:25;;;;;;;30.42;4.03;;;;;;;10.42;73.27;98515.72;6053949;23;20417;-78
2021/05/21 06:08:50;;;;;;;15.15;3.00;;;;;;;10.37;72.18;98507.66;6077589;23;20491;-77
2021/05/21 06:11:16;;;;;;;15.18;3.00;;;;;;;10.51;72.46;98513.84;6099339;23;20044;-78
2021/05/21 06:13:48;;;;;;;22.85;3.17;;;;;;;10.57;72.14;98531.75;6128812;23;20032;-78
2021/05/21 06:16:22;;;;;;;12.25;3.17;;;;;;;10.49;71.84;98488.75;6054535;23;20034;-77
2021/05/21 06:18:48;;;;;;;14.75;2.65;;;;;;;10.62;71.44;98569.88;6126603;23;20064;-79
2021/05/21 06:21:25;;;;;;;25.42;3.72;;;;;;;10.71;71.67;98523.44;6099474;23;20006;-79
2021/05/21 06:23:51;;;;;;;13.93;3.70;;;;;;;10.79;71.84;98541.00;6115608;22;20026;-76
2021/05/21 06:26:29;;;;;;;22.33;3.63;;;;;;;10.69;71.20;98512.03;6122719;23;20014;-75
2021/05/21 06:28:58;;;;;;;15.73;3.30;;;;;;;10.85;72.14;98512.44;6125578;23;20077;-74
2021/05/21 06:31:30;;;;;;;22.40;4.35;;;;;;;10.71;73.86;98575.38;6124161;23;20433;-75
2021/05/21 06:34:04;;;;;;;11.02;2.63;;;;;;;10.32;74.39;98500.34;6125847;23;20441;-78
2021/05/21 06:36:30;;;;;;;17.58;3.38;;;;;;;10.23;75.30;98546.72;6125574;23;20012;-76
2021/05/21 06:38:55;;;;;;;15.98;3.00;;;;;;;10.21;75.15;98515.41;6104158;23;20298;-77
2021/05/21 06:41:20;;;;;;;14.15;3.30;;;;;;;10.25;75.75;98530.84;6129798;23;20009;-78
2021/05/21 06:43:46;;;;;;;24.45;3.25;;;;;;;10.26;74.72;98528.91;6124275;23;20009;-76
2021/05/21 06:46:14;;;;;;;34.17;4.53;;;;;;;10.48;73.57;98522.66;6123907;23;20017;-77
2021/05/21 06:48:41;;;;;;;9.80;2.95;;;;;;;10.47;72.32;98518.34;6102025;23;20212;-75
2021/05/21 06:51:09;;;;;;;16.02;2.80;;;;;;;10.65;72.39;98535.63;6129357;23;20002;-77
2021/05/21 06:53:37;;;;;;;12.95;3.20;;;;;;;10.75;71.29;98531.84;6123490;23;20084;-77
2021/05/21 06:56:05;;;;;;;14.45;2.65;;;;;;;10.76;70.67;98511.56;6125942;23;19998;-77
2021/05/21 06:58:38;;;;;;;14.07;3.03;;;;;;;10.96;70.71;98521.94;6100156;23;20010;-78
2021/05/21 07:01:07;;;;;;;13.60;3.35;;;;;;;11.24;69.78;98513.53;6124944;23;20013;-77
2021/05/21 07:03:33;;;;;;;14.32;3.67;;;;;;;11.48;69.12;98515.06;6121613;23;19998;-77
2021/05/21 07:06:22;;;;;;;22.63;3.60;;;;;;;11.56;68.09;98530.69;6098874;23;20386;-78
2021/05/21 07:09:04;;;;;;;;;;;;;;;11.81;68.37;98531.06;6124552;23;20033;-77
2021/05/21 07:11:30;;;;;;;17.15;2.90;;;;;;;11.64;67.37;98543.59;6125771;23;19978;-77
2021/05/21 07:14:00;;;;;;;18.58;3.55;;;;;;;11.70;67.04;98530.56;6120660;23;20006;-78
2021/05/21 07:16:28;;;;;;;19.02;2.30;;;;;;;11.73;66.05;98486.09;6121301;23;20002;-75
2021/05/21 07:18:53;;;;;;;10.50;2.45;;;;;;;11.80;65.63;98515.75;6125434;23;19998;-78
2021/05/21 07:21:19;;;;;;;10.70;2.20;;;;;;;11.84;65.96;98513.97;6074134;23;20017;-78
2021/05/21 07:23:47;;;;;;;7.20;2.35;;;;;;;11.90;65.33;98531.88;6126244;23;20081;-78
2021/05/21 07:26:23;;;;;;;7.43;1.73;;;;;;;11.68;64.49;98500.78;6096841;23;20006;-81
2021/05/21 07:28:57;;;;;;;11.23;2.78;;;;;;;11.68;65.28;98472.56;6077705;23;20032;-79
2021/05/21 07:31:26;;;;;;;8.70;2.70;;;;;;;11.58;65.40;98495.59;6099233;23;20012;-77
2021/05/21 07:33:56;;;;;;;8.27;2.63;;;;;;;11.62;65.97;98512.19;6096037;23;20013;-78
2021/05/21 07:36:23;;;;;;;20.80;2.30;;;;;;;11.58;65.43;98500.25;6113676;23;20073;-77
2021/05/21 07:38:58;;;;;;;18.52;2.38;;;;;;;11.80;65.61;98502.06;6093749;23;20025;-76
2021/05/21 07:41:27;;;;;;;10.48;1.77;;;;;;;11.85;65.46;98505.44;6124628;23;20006;-73
2021/05/21 07:43:57;;;;;;;15.48;2.80;;;;;;;11.81;65.43;98481.75;6127918;23;20092;-77
2021/05/21 07:46:29;;;;;;;9.55;1.80;;;;;;;11.81;65.33;98553.78;6108093;23;20099;-82
2021/05/21 07:49:04;;;;;;;7.60;2.08;;;;;;;11.71;65.35;98480.16;6104229;23;20061;-79
2021/05/21 07:51:33;;;;;;;7.35;2.08;;;;;;;11.75;64.80;98494.78;6079243;23;20018;-77
2021/05/21 07:54:05;;;;;;;5.47;2.42;;;;;;;11.70;64.43;98501.25;6099339;23;20013;-77
2021/05/21 07:56:30;;;;;;;13.23;2.45;;;;;;;11.91;64.22;98546.38;6094942;23;20005;-78
2021/05/21 07:58:58;;;;;;;11.98;2.58;;;;;;;12.02;64.41;98488.25;6127921;23;20010;-78
2021/05/21 08:01:33;;;;;;;15.73;2.40;;;;;;;11.96;64.36;98535.28;6074912;23;20014;-79
2021/05/21 08:04:11;;;;;;;;;;;;;;;;;;;;;
2021/05/21 08:07:05;;;;;;;12.30;2.92;;;;;;;12.08;64.22;98496.31;6127833;23;20077;-80
2021/05/21 08:09:38;;;;;;;18.67;2.95;;;;;;;11.86;63.92;98577.47;6127856;23;20002;-80
2021/05/21 08:12:09;;;;;;;12.30;2.55;;;;;;;11.85;64.54;98477.25;6129447;23;20006;-81
2021/05/21 08:14:37;;;;;;;8.63;2.00;;;;;;;11.90;64.57;98490.81;6107351;23;20308;-79
2021/05/21 08:17:13;;;;;;;7.50;2.00;;;;;;;12.00;64.49;98490.50;6087482;23;20012;-81
2021/05/21 08:19:41;;;;;;;22.85;2.70;;;;;;;11.89;64.46;98483.69;6094080;23;20077;-80
2021/05/21 08:22:25;;;;;;;17.67;2.72;;;;;;;11.74;64.49;98497.84;6116758;23;20129;-81
2021/05/21 08:24:51;;;;;;;19.85;3.50;;;;;;;11.57;66.31;98487.72;6123279;23;20029;-79
2021/05/21 08:27:32;;;;;;;16.67;3.00;;;;;;;11.47;67.28;98497.03;6150170;23;20048;-80
2021/05/21 08:30:00;;;;;;;18.92;3.22;;;;;;;11.28;67.90;98525.47;6141864;23;20059;-78
2021/05/21 08:32:52;;;;;;;12.25;2.65;;;;;;;11.41;67.05;98501.84;6139795;23;20001;-79
2021/05/21 08:35:23;;;;;;;22.83;2.22;;;;;;;11.46;66.36;98530.97;6138095;23;20009;-80
2021/05/21 08:38:01;;;;;;;;;;;;;;;;;;;;;
2021/05/21 08:40:57;;;;;;;;;;;;;;;;;;;;;
2021/05/21 08:46:20;;;;;;;12.15;2.38;;;;;;;11.43;65.20;98493.31;6138609;23;20029;-81
2021/05/21 08:48:46;;;;;;;22.58;3.72;;;;;;;11.38;64.98;98507.16;6131040;23;20010;-76
2021/05/21 08:51:19;;;;;;;14.02;2.50;;;;;;;11.27;65.36;98474.63;6164754;23;20320;-77
2021/05/21 08:53:48;;;;;;;8.60;2.28;;;;;;;11.27;65.52;98485.56;6129288;23;20011;-78
2021/05/21 08:56:47;;;;;;;10.05;1.83;;;;;;;11.32;64.90;98501.81;6102926;23;20017;-77
2021/05/21 08:59:20;;;;;;;17.80;2.42;;;;;;;11.64;64.64;98518.16;6136366;23;20381;-78
2021/05/21 09:02:00;;;;;;;11.63;2.25;;;;;;;11.67;63.65;98469.03;6089028;23;20344;-77
2021/05/21 09:05:13;;;;;;;5.50;2.30;;;;;;;12.01;63.45;98519.50;6164167;23;20044;-77
2021/05/21 09:07:40;;;;;;;7.53;2.28;;;;;;;11.98;63.24;98500.97;6103011;23;20017;-80
2021/05/21 09:13:10;;;;;;;;;;;;;;;;;;;;;
2021/05/21 09:15:45;;;;;;;14.98;2.05;;;;;;;11.88;63.08;98477.44;6067370;23;20094;-76
2021/05/21 09:18:14;;;;;;;6.68;2.13;;;;;;;11.93;63.04;98486.59;6110296;23;20009;-78
2021/05/21 09:20:40;;;;;;;8.18;2.95;;;;;;;12.13;63.09;98490.66;6132687;23;20009;-77
2021/05/21 09:23:44;;;;;;;7.15;2.17;;;;;;;12.35;61.71;98489.66;6114919;23;20045;-81
2021/05/21 09:29:59;;;;;;;7.03;2.28;;;;;;;12.51;61.25;98481.72;6083034;23;20443;-79
2021/05/21 09:35:30;;;;;;;7.30;2.08;;;;;;;12.43;61.21;98479.81;6093799;23;20060;-78
2021/05/21 09:38:00;;;;;;;12.77;2.10;;;;;;;12.59;61.82;98505.59;6135076;23;20088;-77
2021/05/21 09:40:29;;;;;;;17.48;2.17;;;;;;;12.51;61.95;98481.72;6105195;23;20011;-77
2021/05/21 09:43:06;;;;;;;13.50;2.63;;;;;;;12.54;61.71;98492.03;6108737;23;20014;-78
2021/05/21 09:45:48;;;;;;;14.13;2.65;;;;;;;12.42;62.17;98483.69;6157948;23;20040;-78
2021/05/21 09:48:55;;;;;;;;;;;;;;;;;;;;;
2021/05/21 09:52:17;;;;;;;;;;;;;;;;;;;;;
2021/05/21 09:55:04;;;;;;;18.25;2.75;;;;;;;12.36;64.71;98519.47;6157500;23;20044;-76
2021/05/21 10:01:25;;;;;;;13.85;3.13;;;;;;;11.90;69.58;98490.81;6160397;23;20088;-77
2021/05/21 10:04:00;;;;;;;15.07;2.42;;;;;;;11.54;72.56;98467.25;6133585;23;20019;-74
2021/05/21 10:06:27;;;;;;;16.42;2.83;;;;;;;11.33;73.42;98483.47;6130526;23;20006;-72
2021/05/21 10:08:58;;;;;;;8.35;2.55;;;;;;;11.37;75.78;98494.59;6153350;23;20005;-75
2021/05/21 10:11:35;;;;;;;14.32;2.55;;;;;;;11.04;77.91;98464.88;6160084;23;20016;-78
2021/05/21 10:14:01;;;;;;;12.07;2.53;;;;;;;10.90;78.72;98475.94;6106379;23;20021;-78
2021/05/21 10:16:36;;;;;;;14.43;2.42;;;;;;;10.79;79.55;98464.47;6134202;23;20005;-76
2021/05/21 10:19:05;;;;;;;20.85;2.45;;;;;;;10.46;80.71;98445.66;6139230;23;20013;-77
2021/05/21 10:21:38;;;;;;;27.70;3.15;;;;;;;10.47;81.91;98472.69;6132058;23;20127;-75
2021/05/21 10:24:09;;;;;;;7.43;1.75;;;;;;;10.29;83.31;98495.50;6139925;23;20021;-79
2021/05/21 10:26:38;;;;;;;7.90;1.80;;;;;;;10.36;83.62;98474.06;6130715;23;20714;-76
2021/05/21 10:29:20;;;;;;;13.77;2.30;;;;;;;10.33;83.72;98474.66;6132559;23;20099;-76
2021/05/21 10:31:51;;;;;;;28.83;2.90;;;;;;;10.54;83.66;98485.09;6131548;23;20652;-77
2021/05/21 10:34:21;;;;;;;31.38;3.25;;;;;;;10.43;83.55;98490.81;6153083;23;20009;-78
2021/05/21 10:36:48;;;;;;;13.65;3.28;;;;;;;10.35;83.48;98504.41;6154710;23;20072;-77
2021/05/21 10:39:16;;;;;;;25.17;3.13;;;;;;;10.37;83.93;98480.34;6132702;23;20020;-77
2021/05/21 10:41:53;;;;;;;20.15;2.78;;;;;;;10.43;83.45;98488.09;6158673;23;20005;-77
2021/05/21 10:44:20;;;;;;;24.20;2.70;;;;;;;10.45;83.47;98493.22;6131398;23;20040;-77
2021/05/21 10:46:51;;;;;;;9.70;2.30;;;;;;;10.49;83.79;98483.28;6132316;23;20006;-77
2021/05/21 10:49:28;;;;;;;27.35;3.25;;;;;;;10.54;83.78;98513.25;6159495;23;20028;-77
2021/05/21 10:52:05;;;;;;;13.15;2.78;;;;;;;10.61;83.46;98475.31;6129699;23;20016;-76
2021/05/21 10:54:48;;;;;;;;;;;;;;;;;;;;;
2021/05/21 10:57:15;;;;;;;11.48;2.03;;;;;;;10.89;83.60;98485.25;6154576;23;20081;-78
2021/05/21 11:00:19;;;;;;;10.20;2.13;;;;;;;10.98;81.91;98486.91;6158342;23;20006;-77
2021/05/21 11:02:54;;;;;;;5.57;1.20;;;;;;;11.04;81.87;98509.47;6109125;23;20002;-77
2021/05/21 11:05:34;;;;;;;14.32;2.33;;;;;;;10.86;81.65;98492.16;6158616;23;20001;-77
2021/05/21 11:08:09;;;;;;;8.82;2.47;;;;;;;10.99;81.98;98495.91;6152175;23;20089;-75
2021/05/21 11:10:34;;;;;;;14.18;2.33;;;;;;;10.91;81.83;98508.44;6155005;23;20002;-75
2021/05/21 11:13:16;;;;;;;16.40;2.00;;;;;;;10.89;82.21;98497.00;6128299;23;20015;-77
2021/05/21 11:16:04;;;;;;;13.40;1.80;;;;;;;10.87;82.33;98493.78;6133912;23;20001;-76
2021/05/21 11:18:30;;;;;;;20.42;2.33;;;;;;;10.70;82.21;98488.22;6159433;23;20033;-77
2021/05/21 11:21:06;;;;;;;12.32;2.30;;;;;;;10.94;82.25;98509.75;6159803;23;20416;-75
2021/05/21 11:23:37;;;;;;;14.65;2.65;;;;;;;10.78;81.31;98493.72;6132513;23;20406;-77
2021/05/21 11:26:22;;;;;;;11.63;1.83;;;;;;;10.77;81.77;98494.03;6159813;23;20020;-76
2021/05/21 11:28:58;;;;;;;8.77;1.97;;;;;;;10.59;82.30;98504.91;6158673;23;20001;-77
2021/05/21 11:31:27;;;;;;;15.32;1.70;;;;;;;10.39;83.04;98495.28;6130851;23;20314;-76
2021/05/21 11:33:54;;;;;;;12.13;1.92;;;;;;;10.42;84.32;98515.72;6154183;23;20012;-76
2021/05/21 11:36:23;;;;;;;10.93;1.50;;;;;;;10.50;84.45;98506.78;6127743;23;20060;-75
2021/05/21 11:38:49;;;;;;;12.02;2.80;;;;;;;10.40;84.19;98496.91;6151015;23;20005;-75
2021/05/21 11:41:15;;;;;;;10.68;1.70;;;;;;;10.34;83.70;98491.88;6103681;23;20067;-74
2021/05/21 11:43:45;;;;;;;18.52;2.05;;;;;;;10.25;84.35;98494.50;6151732;23;20009;-75
2021/05/21 11:46:18;;;;;;;10.55;1.30;;;;;;;10.27;84.81;98504.00;6154905;23;20010;-76
2021/05/21 11:48:46;;;;;;;8.90;1.35;;;;;;;10.23;85.20;98489.34;6143550;23;20002;-76
2021/05/21 11:51:15;;;;;;;11.70;1.45;;;;;;;10.06;85.11;98495.53;6118510;23;20336;-76
2021/05/21 11:53:51;;;;;;;28.42;2.45;;;;;;;10.14;85.31;98515.81;6124933;23;20088;-75
2021/05/21 11:56:36;;;;;;;5.95;1.40;;;;;;;10.13;85.78;98492.34;6154191;23;20302;-75
2021/05/21 11:59:12;;;;;;;15.63;1.65;;;;;;;10.18;85.38;98505.88;6155853;23;20081;-75
2021/05/21 12:01:53;;;;;;;7.60;1.27;;;;;;;10.24;86.02;98503.84;6131638;23;20065;-75
2021/05/21 12:04:21;;;;;;;5.35;0.93;;;;;;;10.27;85.98;98498.56;6125047;23;20009;-76
2021/05/21 12:06:49;;;;;;;8.15;0.80;;;;;;;10.42;85.77;98508.31;6131012;23;20033;-76
2021/05/21 12:09:18;;;;;;;8.77;1.27;;;;;;;10.53;84.96;98500.69;6124932;23;20011;-75
2021/05/21 12:11:47;;;;;;;6.07;1.70;;;;;;;10.42;84.41;98502.06;6156852;23;20440;-75
2021/05/21 12:14:15;;;;;;;3.30;0.68;;;;;;;10.48;83.99;98487.97;6105243;23;20310;-76